Time;durP1;ratioP1;P1;durP2;ratioP2;P2;SDS_P1;SDS_P2;PMS_P1;PMS_P2;Temp;Humidity;BMP_temperature;BMP_pressure;BME280_temperature;BME280_humidity;BME280_pressure;Samples;Min_cycle;Max_cycle;Signal;HPM_P1;HPM_P2
2021/04/29 00:00:18;;;;;;;;;;;;;;;6.85;62.90;100247.44;5042178;28;1603;-79
2021/04/29 00:02:44;;;;;;;;;;;;;;;6.81;62.88;100243.75;5046710;28;1579;-79
2021/04/29 00:05:15;;;;;;;;;;;;;;;6.83;63.18;100249.72;5031368;28;1000;-79
2021/04/29 00:07:41;;;;;;;;;;;;;;;6.85;63.36;100250.19;5033806;28;1627;-80
2021/04/29 00:10:09;;;;;;;;;;;;;;;6.80;63.36;100251.22;5050000;28;1257;-80
2021/04/29 00:12:34;;;;;;;;;;;;;;;6.83;63.47;100257.94;5047399;28;1819;-79
2021/04/29 00:15:00;;;;;;;;;;;;;;;6.83;63.87;100253.25;5029024;28;1576;-79
2021/04/29 00:17:26;;;;;;;;;;;;;;;6.83;63.59;100245.03;5027734;28;1894;-79
2021/04/29 00:19:51;;;;;;;;;;;;;;;6.88;63.42;100239.34;5030235;28;1225;-80
2021/04/29 00:22:16;;;;;;;;;;;;;;;6.89;64.13;100219.00;5048570;28;1694;-79
2021/04/29 00:24:42;;;;;;;;;;;;;;;6.90;63.80;100225.28;5049816;28;833;-79
2021/04/29 00:27:07;;;;;;;;;;;;;;;6.86;63.97;100219.66;5033114;28;1650;-80
2021/04/29 00:29:32;;;;;;;;;;;;;;;6.77;64.35;100219.72;5018317;28;1300;-78
2021/04/29 00:31:58;;;;;;;;;;;;;;;6.71;64.74;100215.59;5032839;28;1776;-79
2021/04/29 00:34:23;;;;;;;;;;;;;;;6.65;64.96;100216.91;5037390;28;1078;-79
2021/04/29 00:36:50;;;;;;;;;;;;;;;6.64;65.05;100212.53;5023851;28;1898;-78
2021/04/29 00:39:15;;;;;;;;;;;;;;;6.59;65.28;100202.59;5016710;28;1178;-79
2021/04/29 00:41:40;;;;;;;;;;;;;;;6.53;65.18;100203.09;5029860;28;1706;-79
2021/04/29 00:44:06;;;;;;;;;;;;;;;6.47;65.56;100208.00;5041552;28;909;-80
2021/04/29 00:46:31;;;;;;;;;;;;;;;6.42;65.96;100210.91;5040458;28;1718;-78
2021/04/29 00:48:56;;;;;;;;;;;;;;;6.36;66.15;100207.53;5040538;28;1197;-78
2021/04/29 00:51:22;;;;;;;;;;;;;;;6.31;66.60;100201.44;5033449;28;1584;-79
2021/04/29 00:53:47;;;;;;;;;;;;;;;6.26;66.63;100205.16;5021250;28;870;-79
2021/04/29 00:56:13;;;;;;;;;;;;;;;6.21;66.40;100208.09;5026505;28;1890;-78
2021/04/29 00:58:39;;;;;;;;;;;;;;;6.16;67.15;100202.78;5037209;28;1774;-79
2021/04/29 01:01:05;;;;;;;;;;;;;;;6.18;67.21;100206.03;5021613;28;877;-78
2021/04/29 01:03:43;;;;;;;;;;;;;;;6.22;67.10;100213.25;5021734;28;1670;-78
2021/04/29 01:06:22;;;;;;;;;;;;;;;6.28;66.99;100211.16;5022630;28;1738;-78
2021/04/29 01:08:58;;;;;;;;;;;;;;;6.36;66.84;100204.78;5023601;28;1794;-78
2021/04/29 01:11:27;;;;;;;;;;;;;;;6.44;66.64;100196.84;5042160;28;821;-78
2021/04/29 01:13:56;;;;;;;;;;;;;;;6.50;66.68;100201.81;5039979;28;1599;-78
2021/04/29 01:16:23;;;;;;;;;;;;;;;6.61;66.54;100202.25;5040899;28;1947;-78
2021/04/29 01:18:51;;;;;;;;;;;;;;;6.72;66.41;100202.66;5039594;28;1587;-78
2021/04/29 01:21:17;;;;;;;;;;;;;;;6.82;66.04;100194.03;5040981;28;928;-78
2021/04/29 01:23:55;;;;;;;;;;;;;;;6.92;66.02;100199.13;5040118;28;1623;-78
2021/04/29 01:26:29;;;;;;;;;;;;;;;7.06;65.93;100192.56;5040980;28;883;-78
2021/04/29 01:28:55;;;;;;;;;;;;;;;7.15;65.41;100187.81;5039866;28;1726;-78
2021/04/29 01:31:24;;;;;;;;;;;;;;;7.24;65.37;100191.28;5039277;28;837;-78
2021/04/29 01:33:51;;;;;;;;;;;;;;;7.34;64.97;100192.81;5039721;28;1548;-79
2021/04/29 01:36:17;;;;;;;;;;;;;;;7.44;64.60;100203.38;5055775;28;1894;-79
2021/04/29 01:38:43;;;;;;;;;;;;;;;7.53;64.34;100197.78;5028360;28;1607;-78
2021/04/29 01:41:09;;;;;;;;;;;;;;;7.64;64.16;100195.41;5021672;28;1070;-78
2021/04/29 01:43:36;;;;;;;;;;;;;;;7.73;63.98;100190.63;5030605;28;1623;-79
2021/04/29 01:46:02;;;;;;;;;;;;;;;7.79;63.46;100194.75;5040563;28;797;-79
2021/04/29 01:48:28;;;;;;;;;;;;;;;7.83;63.50;100198.44;5032240;28;1663;-78
2021/04/29 01:50:53;;;;;;;;;;;;;;;7.86;63.70;100200.50;5020889;28;834;-79
2021/04/29 01:53:19;;;;;;;;;;;;;;;7.90;63.40;100201.41;5020075;28;1726;-78
2021/04/29 01:55:45;;;;;;;;;;;;;;;7.95;63.39;100205.09;5020918;28;837;-79
2021/04/29 01:58:11;;;;;;;;;;;;;;;8.00;62.80;100211.19;5022257;28;1890;-79
2021/04/29 02:00:36;;;;;;;;;;;;;;;8.04;62.81;100216.78;5021742;28;871;-79
2021/04/29 02:03:02;;;;;;;;;;;;;;;8.03;62.79;100216.00;5024455;28;1619;-79
2021/04/29 02:05:27;;;;;;;;;;;;;;;8.04;63.56;100220.34;5040566;28;987;-79
2021/04/29 02:07:53;;;;;;;;;;;;;;;7.97;64.25;100211.84;5038971;28;1569;-78
2021/04/29 02:10:18;;;;;;;;;;;;;;;7.90;65.10;100209.66;5021278;28;995;-78
2021/04/29 02:12:50;;;;;;;;;;;;;;;7.82;66.57;100207.84;5020468;28;1016;-78
2021/04/29 02:15:16;;;;;;;;;;;;;;;7.78;67.56;100198.66;5039755;28;1855;-78
2021/04/29 02:17:49;;;;;;;;;;;;;;;7.74;68.92;100211.47;5038001;28;1953;-78
2021/04/29 02:20:16;;;;;;;;;;;;;;;7.66;71.19;100199.41;5038723;28;1809;-78
2021/04/29 02:22:44;;;;;;;;;;;;;;;7.61;71.86;100183.13;5053863;28;1477;-78
2021/04/29 02:25:12;;;;;;;;;;;;;;;7.56;72.52;100197.13;5039003;28;1752;-78
2021/04/29 02:27:39;;;;;;;;;;;;;;;7.56;72.88;100193.56;5026916;28;1880;-78
2021/04/29 02:30:08;;;;;;;;;;;;;;;7.57;72.80;100192.41;5019111;28;1312;-78
2021/04/29 02:32:35;;;;;;;;;;;;;;;7.61;72.30;100187.84;5029857;28;1573;-78
2021/04/29 02:35:06;;;;;;;;;;;;;;;7.64;72.75;100187.97;5039389;28;852;-79
2021/04/29 02:37:32;;;;;;;;;;;;;;;7.64;72.99;100196.22;5026154;28;1890;-77
2021/04/29 02:39:59;;;;;;;;;;;;;;;7.65;73.20;100189.59;5020658;28;1294;-78
2021/04/29 02:42:25;;;;;;;;;;;;;;;7.67;73.77;100189.25;5032014;28;1679;-78
2021/04/29 02:44:50;;;;;;;;;;;;;;;7.65;73.59;100183.28;5039145;28;1054;-78
2021/04/29 02:47:16;;;;;;;;;;;;;;;7.62;74.24;100179.25;5027349;28;1616;-77
2021/04/29 02:49:42;;;;;;;;;;;;;;;7.64;75.01;100173.44;5018443;28;1346;-77
2021/04/29 02:52:10;;;;;;;;;;;;;;;7.63;75.78;100174.56;5027539;28;1710;-77
2021/04/29 02:54:35;;;;;;;;;;;;;;;7.62;75.31;100173.75;5038186;28;999;-78
2021/04/29 02:57:01;;;;;;;;;;;;;;;7.59;75.51;100168.94;5039542;28;1874;-78
2021/04/29 02:59:27;;;;;;;;;;;;;;;7.57;75.95;100168.50;5039800;28;1256;-78
2021/04/29 03:01:52;;;;;;;;;;;;;;;7.58;75.45;100159.13;5034007;28;1615;-78
2021/04/29 03:04:17;;;;;;;;;;;;;;;7.58;75.86;100161.03;5019752;28;1555;-78
2021/04/29 03:06:43;;;;;;;;;;;;;;;7.52;78.10;100164.00;5040344;28;1694;-78
2021/04/29 03:09:08;;;;;;;;;;;;;;;7.38;77.50;100160.75;5040307;28;1197;-77
2021/04/29 03:11:34;;;;;;;;;;;;;;;7.29;77.91;100151.81;5023354;28;1735;-78
2021/04/29 03:14:00;;;;;;;;;;;;;;;7.24;76.62;100147.34;5021364;28;913;-78
2021/04/29 03:16:25;;;;;;;;;;;;;;;7.25;76.75;100146.19;5036629;28;1963;-78
2021/04/29 03:18:51;;;;;;;;;;;;;;;7.24;77.27;100138.31;5040010;28;1280;-78
2021/04/29 03:21:16;;;;;;;;;;;;;;;7.22;77.89;100141.38;5028102;28;1583;-79
2021/04/29 03:23:41;;;;;;;;;;;;;;;7.20;77.94;100129.13;5021388;28;999;-78
2021/04/29 03:26:07;;;;;;;;;;;;;;;7.17;78.04;100127.88;5033459;28;1611;-78
2021/04/29 03:28:32;;;;;;;;;;;;;;;7.16;78.09;100129.00;5037924;28;1189;-78
2021/04/29 03:30:57;;;;;;;;;;;;;;;7.10;78.11;100111.13;5034876;28;2008;-78
2021/04/29 03:33:23;;;;;;;;;;;;;;;7.05;78.14;100120.38;5040410;28;791;-78
2021/04/29 03:35:48;;;;;;;;;;;;;;;6.99;78.34;100113.50;5042984;28;1767;-78
2021/04/29 03:38:14;;;;;;;;;;;;;;;6.94;78.71;100108.22;5021540;28;1898;-78
2021/04/29 03:40:39;;;;;;;;;;;;;;;6.87;79.34;100105.19;5035076;28;1804;-77
2021/04/29 03:43:05;;;;;;;;;;;;;;;6.78;80.01;100097.88;5042038;28;987;-77
2021/04/29 03:45:31;;;;;;;;;;;;;;;6.73;80.27;100100.81;5030312;28;1553;-77
2021/04/29 03:47:56;;;;;;;;;;;;;;;6.65;80.78;100107.16;5020735;28;1169;-77
2021/04/29 03:50:22;;;;;;;;;;;;;;;6.56;81.08;100101.75;5033046;28;1742;-78
2021/04/29 03:52:47;;;;;;;;;;;;;;;6.48;81.14;100099.88;5040093;28;825;-78
2021/04/29 03:55:13;;;;;;;;;;;;;;;6.43;81.60;100110.25;5047930;28;1750;-78
2021/04/29 03:57:38;;;;;;;;;;;;;;;6.37;82.04;100107.69;5020781;28;1928;-78
2021/04/29 04:00:06;;;;;;;;;;;;;;;6.34;82.81;100110.31;5028397;28;1607;-78
2021/04/29 04:02:31;;;;;;;;;;;;;;;6.29;82.89;100108.56;5037707;28;1786;-78
2021/04/29 04:04:56;;;;;;;;;;;;;;;6.26;82.91;100108.41;5025323;28;1683;-77
2021/04/29 04:07:22;;;;;;;;;;;;;;;6.24;82.87;100105.22;5039736;28;1591;-78
2021/04/29 04:09:47;;;;;;;;;;;;;;;6.22;83.19;100097.31;5037833;28;1947;-78
2021/04/29 04:12:12;;;;;;;;;;;;;;;6.23;83.51;100098.94;5039680;28;1800;-78
2021/04/29 04:14:38;;;;;;;;;;;;;;;6.25;83.47;100096.66;5021673;28;1738;-78
2021/04/29 04:17:03;;;;;;;;;;;;;;;6.26;83.89;100092.75;5021325;28;1894;-78
2021/04/29 04:19:28;;;;;;;;;;;;;;;6.30;83.76;100095.63;5040972;28;1853;-78
2021/04/29 04:21:53;;;;;;;;;;;;;;;6.32;83.70;100090.66;5043206;28;1074;-78
2021/04/29 04:24:19;;;;;;;;;;;;;;;6.36;83.57;100086.09;5026778;28;1851;-78
2021/04/29 04:26:44;;;;;;;;;;;;;;;6.40;83.34;100089.75;5022956;28;1228;-78
2021/04/29 04:29:10;;;;;;;;;;;;;;;6.43;83.11;100078.13;5037209;28;1823;-78
2021/04/29 04:31:35;;;;;;;;;;;;;;;6.47;82.78;100091.97;5043469;28;1560;-78
2021/04/29 04:34:00;;;;;;;;;;;;;;;6.47;82.89;100092.78;5043674;28;948;-77
2021/04/29 04:36:25;;;;;;;;;;;;;;;6.49;82.86;100087.78;5030961;28;1871;-78
2021/04/29 04:38:51;;;;;;;;;;;;;;;6.49;82.60;100096.00;5024154;28;1689;-78
2021/04/29 04:41:16;;;;;;;;;;;;;;;6.52;82.54;100100.00;5027356;28;1634;-79
2021/04/29 04:43:41;;;;;;;;;;;;;;;6.53;82.88;100098.88;5042894;28;842;-78
2021/04/29 04:46:07;;;;;;;;;;;;;;;6.56;82.72;100109.97;5040779;28;1730;-78
2021/04/29 04:48:32;;;;;;;;;;;;;;;6.59;82.92;100112.06;5022229;28;1181;-78
2021/04/29 04:50:57;;;;;;;;;;;;;;;6.61;82.36;100113.66;5022692;28;1580;-78
2021/04/29 04:53:23;;;;;;;;;;;;;;;6.61;82.55;100105.41;5042887;28;860;-78
2021/04/29 04:55:50;;;;;;;;;;;;;;;6.59;82.11;100117.56;5042884;28;843;-78
2021/04/29 04:58:16;;;;;;;;;;;;;;;6.59;82.16;100106.56;5024741;28;1977;-77
2021/04/29 05:00:42;;;;;;;;;;;;;;;6.62;81.80;100107.84;5023094;28;893;-78
2021/04/29 05:03:07;;;;;;;;;;;;;;;6.64;81.68;100104.75;5023075;28;1583;-78
2021/04/29 05:05:33;;;;;;;;;;;;;;;6.71;81.02;100103.09;5021127;28;813;-78
2021/04/29 05:08:00;;;;;;;;;;;;;;;6.78;81.20;100097.88;5020272;28;1827;-78
2021/04/29 05:10:26;;;;;;;;;;;;;;;6.89;80.87;100109.22;5021353;28;830;-78
2021/04/29 05:12:52;;;;;;;;;;;;;;;7.02;80.51;100104.56;5035179;28;1615;-78
2021/04/29 05:15:17;;;;;;;;;;;;;;;7.11;80.64;100108.06;5040998;28;972;-78
2021/04/29 05:17:42;;;;;;;;;;;;;;;7.23;80.26;100111.97;5029323;28;1943;-78
2021/04/29 05:20:08;;;;;;;;;;;;;;;7.32;79.81;100115.44;5022934;28;1312;-78
2021/04/29 05:22:33;;;;;;;;;;;;;;;7.44;79.80;100112.72;5022748;28;1619;-78
2021/04/29 05:24:59;;;;;;;;;;;;;;;7.57;79.80;100113.53;5044388;28;1800;-78
2021/04/29 05:27:24;;;;;;;;;;;;;;;7.75;80.15;100114.13;5043214;28;932;-78
2021/04/29 05:29:50;;;;;;;;;;;;;;;7.95;79.76;100114.38;5039986;28;1647;-78
2021/04/29 05:32:15;;;;;;;;;;;;;;;8.15;79.40;100107.97;5024755;28;1463;-78
2021/04/29 05:34:41;;;;;;;;;;;;;;;8.34;78.80;100115.63;5024435;28;1519;-78
2021/04/29 05:37:06;;;;;;;;;;;;;;;8.51;77.19;100117.31;5040922;28;1942;-78
2021/04/29 05:39:32;;;;;;;;;;;;;;;8.69;77.42;100106.84;5040396;28;1130;-78
2021/04/29 05:41:57;;;;;;;;;;;;;;;8.89;76.61;100105.03;5040668;28;1702;-78
2021/04/29 05:44:23;;;;;;;;;;;;;;;9.09;76.00;100107.97;5040907;28;1379;-78
2021/04/29 05:46:48;;;;;;;;;;;;;;;9.28;76.19;100108.09;5036653;28;1580;-78
2021/04/29 05:49:13;;;;;;;;;;;;;;;9.41;76.16;100108.81;5040492;28;1497;-77
2021/04/29 05:51:39;;;;;;;;;;;;;;;9.58;74.86;100111.22;5040575;28;821;-78
2021/04/29 05:54:04;;;;;;;;;;;;;;;9.62;75.53;100105.00;5040255;28;940;-79
2021/04/29 05:56:30;;;;;;;;;;;;;;;9.67;74.92;100107.50;5040405;28;1934;-78
2021/04/29 05:58:55;;;;;;;;;;;;;;;9.75;75.08;100104.56;5039892;28;1182;-78
2021/04/29 06:01:20;;;;;;;;;;;;;;;9.74;73.92;100113.19;5040867;28;702;-79
2021/04/29 06:03:48;;;;;;;;;;;;;;;9.77;73.46;100105.00;5041636;28;1012;-78
2021/04/29 06:06:13;;;;;;;;;;;;;;;9.99;73.28;100105.53;5040364;28;832;-78
2021/04/29 06:08:38;;;;;;;;;;;;;;;10.06;73.60;100102.94;5031423;28;2973;-78
2021/04/29 06:11:03;;;;;;;;;;;;;;;10.21;73.86;100095.81;5062419;28;2932;-78
2021/04/29 06:13:29;;;;;;;;;;;;;;;10.26;71.55;100103.81;5055157;28;3408;-79
2021/04/29 06:15:54;;;;;;;;;;;;;;;10.45;71.31;100100.31;5056442;28;1007;-78
2021/04/29 06:18:19;;;;;;;;;;;;;;;10.68;70.72;100099.63;5052212;28;1924;-79
2021/04/29 06:20:45;;;;;;;;;;;;;;;10.89;68.72;100100.03;5049731;28;991;-79
2021/04/29 06:23:10;;;;;;;;;;;;;;;10.98;67.90;100099.03;5049283;28;991;-79
2021/04/29 06:25:35;;;;;;;;;;;;;;;11.52;68.45;100098.06;5047729;28;3486;-78
2021/04/29 06:28:01;;;;;;;;;;;;;;;12.22;66.99;100096.06;5027080;28;1458;-78
2021/04/29 06:30:26;;;;;;;;;;;;;;;12.58;64.58;100096.56;5029367;28;892;-79
2021/04/29 06:32:51;;;;;;;;;;;;;;;13.11;62.40;100098.38;5027306;28;1000;-79
2021/04/29 06:35:18;;;;;;;;;;;;;;;13.93;61.89;100087.28;5025497;28;1047;-78
2021/04/29 06:37:43;;;;;;;;;;;;;;;14.71;59.54;100090.94;5025759;28;1871;-78
2021/04/29 06:40:12;;;;;;;;;;;;;;;15.31;56.24;100086.75;5033251;28;1233;-78
2021/04/29 06:42:37;;;;;;;;;;;;;;;15.37;53.66;100086.00;5045472;28;868;-78
2021/04/29 06:45:03;;;;;;;;;;;;;;;15.58;54.99;100082.44;5044755;28;1066;-78
2021/04/29 06:47:31;;;;;;;;;;;;;;;15.67;54.73;100076.47;5045444;28;944;-77
2021/04/29 06:49:57;;;;;;;;;;;;;;;15.93;55.62;100083.66;5044969;28;1256;-78
2021/04/29 06:52:22;;;;;;;;;;;;;;;15.40;54.56;100079.66;5043872;28;1113;-78
2021/04/29 06:54:48;;;;;;;;;;;;;;;15.32;54.85;100077.25;5047161;28;912;-79
2021/04/29 06:57:14;;;;;;;;;;;;;;;15.55;54.03;100085.22;5044117;28;1886;-79
2021/04/29 06:59:40;;;;;;;;;;;;;;;15.12;54.38;100082.34;5041528;28;1185;-78
2021/04/29 07:02:06;;;;;;;;;;;;;;;14.46;56.97;100091.59;5038509;28;2483;-78
2021/04/29 07:04:31;;;;;;;;;;;;;;;13.70;57.88;100090.25;5031118;28;1356;-78
2021/04/29 07:06:57;;;;;;;;;;;;;;;13.39;60.43;100083.25;5037810;28;893;-79
2021/04/29 07:09:22;;;;;;;;;;;;;;;12.89;61.82;100092.59;5037610;28;1414;-77
2021/04/29 07:11:47;;;;;;;;;;;;;;;13.00;62.45;100087.16;5036885;28;971;-78
2021/04/29 07:14:13;;;;;;;;;;;;;;;13.21;62.35;100078.28;5036483;28;1019;-77
2021/04/29 07:16:38;;;;;;;;;;;;;;;13.04;62.44;100081.66;5036853;28;1890;-78
2021/04/29 07:19:03;;;;;;;;;;;;;;;12.74;63.39;100077.75;5037116;28;1181;-78
2021/04/29 07:21:29;;;;;;;;;;;;;;;12.28;64.89;100089.00;5038856;28;1220;-78
2021/04/29 07:23:54;;;;;;;;;;;;;;;11.67;67.16;100088.03;5038044;28;867;-78
2021/04/29 07:26:19;;;;;;;;;;;;;;;11.37;68.57;100098.97;5036548;28;820;-77
2021/04/29 07:28:45;;;;;;;;;;;;;;;11.29;69.48;100089.75;5035697;28;1201;-77
2021/04/29 07:31:11;;;;;;;;;;;;;;;11.36;69.12;100089.88;5035838;28;1028;-77
2021/04/29 07:33:36;;;;;;;;;;;;;;;11.27;70.04;100092.09;5036480;28;1361;-78
2021/04/29 07:36:03;;;;;;;;;;;;;;;11.26;69.81;100094.06;5038090;28;1240;-77
2021/04/29 07:38:28;;;;;;;;;;;;;;;11.17;70.30;100087.16;5036584;28;1969;-77
2021/04/29 07:40:53;;;;;;;;;;;;;;;10.99;71.27;100101.44;5036602;28;813;-78
2021/04/29 07:43:19;;;;;;;;;;;;;;;10.86;71.89;100102.72;5038492;28;1059;-78
2021/04/29 07:45:44;;;;;;;;;;;;;;;10.81;72.13;100101.06;5038212;28;992;-78
2021/04/29 07:48:10;;;;;;;;;;;;;;;10.79;72.79;100097.88;5035827;28;1331;-78
2021/04/29 07:50:35;;;;;;;;;;;;;;;10.78;72.84;100099.03;5035998;28;825;-78
2021/04/29 07:53:01;;;;;;;;;;;;;;;10.73;73.01;100105.66;5035888;28;909;-78
2021/04/29 07:55:27;;;;;;;;;;;;;;;10.62;73.97;100107.38;5036662;28;979;-78
2021/04/29 07:57:52;;;;;;;;;;;;;;;10.64;74.19;100113.34;5030713;28;1964;-77
2021/04/29 08:00:18;;;;;;;;;;;;;;;10.51;74.50;100101.63;5021940;28;1676;-78
2021/04/29 08:02:44;;;;;;;;;;;;;;;10.46;74.96;100107.44;5031173;28;2029;-77
2021/04/29 08:05:10;;;;;;;;;;;;;;;10.30;75.68;100096.41;5037681;28;1042;-78
2021/04/29 08:07:36;;;;;;;;;;;;;;;10.25;75.87;100109.69;5038815;28;841;-79
2021/04/29 08:10:02;;;;;;;;;;;;;;;10.23;76.04;100115.56;5043428;28;1217;-78
2021/04/29 08:12:27;;;;;;;;;;;;;;;10.16;77.90;100115.41;5039233;28;1058;-79
2021/04/29 08:14:56;;;;;;;;;;;;;;;10.04;78.08;100115.50;5031497;28;1374;-79
2021/04/29 08:17:21;;;;;;;;;;;;;;;9.86;79.46;100106.78;5043874;28;1890;-78
2021/04/29 08:19:47;;;;;;;;;;;;;;;9.75;80.86;100106.53;5061785;28;1177;-78
2021/04/29 08:22:12;;;;;;;;;;;;;;;9.51;82.05;100113.00;5051892;28;841;-78
2021/04/29 08:24:37;;;;;;;;;;;;;;;9.26;84.34;100117.84;5040303;28;1031;-78
2021/04/29 08:27:03;;;;;;;;;;;;;;;9.07;86.02;100119.34;5037879;28;1086;-77
2021/04/29 08:29:28;;;;;;;;;;;;;;;8.94;87.08;100118.56;5029539;28;3735;-77
2021/04/29 08:31:54;;;;;;;;;;;;;;;8.90;87.76;100127.91;5021242;28;3100;-77
2021/04/29 08:34:19;;;;;;;;;;;;;;;8.88;88.19;100119.97;5017398;28;3116;-77
2021/04/29 08:36:45;;;;;;;;;;;;;;;8.88;88.64;100119.19;5037056;28;1961;-77
2021/04/29 08:39:10;;;;;;;;;;;;;;;8.87;89.19;100125.84;5037373;28;1218;-77
2021/04/29 08:41:35;;;;;;;;;;;;;;;8.86;88.33;100116.78;5039236;28;971;-77
2021/04/29 08:44:01;;;;;;;;;;;;;;;8.95;88.18;100127.66;5039640;28;988;-77
2021/04/29 08:46:26;;;;;;;;;;;;;;;9.03;87.68;100130.25;5035983;28;3318;-77
2021/04/29 08:48:54;;;;;;;;;;;;;;;9.10;86.08;100137.09;5025618;28;1579;-78
2021/04/29 08:51:21;;;;;;;;;;;;;;;9.09;85.59;100141.00;5035669;28;1113;-77
2021/04/29 08:53:48;;;;;;;;;;;;;;;9.06;85.48;100141.72;5035012;28;1112;-77
2021/04/29 08:56:13;;;;;;;;;;;;;;;9.06;85.16;100147.22;5034766;28;1136;-77
2021/04/29 08:58:39;;;;;;;;;;;;;;;9.00;85.73;100139.19;5034169;28;1959;-77
2021/04/29 09:01:05;;;;;;;;;;;;;;;8.95;85.22;100139.44;5022545;28;3710;-77
2021/04/29 09:03:33;;;;;;;;;;;;;;;8.94;85.59;100150.81;5037349;28;1160;-77
2021/04/29 09:05:59;;;;;;;;;;;;;;;8.88;84.81;100143.97;5034895;28;3821;-78
2021/04/29 09:08:30;;;;;;;;;;;;;;;8.89;85.73;100151.06;5030747;28;3135;-78
2021/04/29 09:11:15;;;;;;;;;;;;;;;8.89;85.86;100157.34;5040683;28;803;-79
2021/04/29 09:13:52;;;;;;;;;;;;;;;8.91;86.02;100148.75;5032544;28;801;-78
2021/04/29 09:16:18;;;;;;;;;;;;;;;8.91;86.01;100157.00;5040547;28;1489;-78
2021/04/29 09:18:43;;;;;;;;;;;;;;;9.01;86.49;100151.00;5038027;28;1937;-77
2021/04/29 09:21:14;;;;;;;;;;;;;;;9.03;86.91;100156.97;5039291;28;1382;-77
2021/04/29 09:23:41;;;;;;;;;;;;;;;9.03;86.26;100151.47;5039182;28;2838;-77
2021/04/29 09:26:10;;;;;;;;;;;;;;;8.98;87.03;100155.28;5039618;28;1153;-77
2021/04/29 09:28:39;;;;;;;;;;;;;;;8.94;87.55;100159.88;5038146;28;1283;-77
2021/04/29 09:31:11;;;;;;;;;;;;;;;8.81;87.60;100166.56;5039879;28;966;-78
2021/04/29 09:33:39;;;;;;;;;;;;;;;8.72;88.48;100163.97;5039494;28;1073;-78
2021/04/29 09:36:06;;;;;;;;;;;;;;;8.69;87.67;100161.09;5039118;28;935;-78
2021/04/29 09:38:37;;;;;;;;;;;;;;;8.54;88.14;100166.16;5039401;28;1863;-79
2021/04/29 09:41:03;;;;;;;;;;;;;;;8.47;88.35;100165.94;5038556;28;884;-78
2021/04/29 09:43:29;;;;;;;;;;;;;;;8.40;89.12;100173.94;5038900;28;916;-78
2021/04/29 09:45:56;;;;;;;;;;;;;;;8.35;89.58;100169.47;5038521;28;843;-78
2021/04/29 09:48:23;;;;;;;;;;;;;;;8.26;89.57;100166.84;5037166;28;1277;-78
2021/04/29 09:50:51;;;;;;;;;;;;;;;8.20;90.82;100178.41;5038936;28;896;-78
2021/04/29 09:53:17;;;;;;;;;;;;;;;8.15;91.17;100184.97;5039315;28;860;-78
2021/04/29 09:55:45;;;;;;;;;;;;;;;8.09;91.99;100181.63;5039712;28;868;-78
2021/04/29 09:58:16;;;;;;;;;;;;;;;8.06;92.39;100187.81;5038771;28;1959;-78
2021/04/29 10:00:44;;;;;;;;;;;;;;;7.97;92.64;100181.59;5032450;28;2644;-78
2021/04/29 10:03:09;;;;;;;;;;;;;;;7.83;92.58;100181.94;5024242;28;1550;-78
2021/04/29 10:05:39;;;;;;;;;;;;;;;7.79;93.25;100188.47;5038414;28;873;-78
2021/04/29 10:08:15;;;;;;;;;;;;;;;7.74;93.34;100185.94;5038852;28;1272;-77
2021/04/29 10:10:46;;;;;;;;;;;;;;;7.77;94.13;100179.75;5039214;28;1511;-78
2021/04/29 10:13:11;;;;;;;;;;;;;;;7.71;94.48;100181.91;5050610;28;1449;-78
2021/04/29 10:15:43;;;;;;;;;;;;;;;7.69;94.74;100178.72;5039869;28;904;-78
2021/04/29 10:18:10;;;;;;;;;;;;;;;7.71;94.59;100185.47;5053155;28;1961;-79
2021/04/29 10:20:47;;;;;;;;;;;;;;;7.66;94.34;100174.69;5054550;28;1445;-78
2021/04/29 10:23:17;;;;;;;;;;;;;;;7.68;94.21;100172.41;5037935;28;3606;-78
2021/04/29 10:25:49;;;;;;;;;;;;;;;7.74;94.37;100174.94;5031274;28;3380;-78
2021/04/29 10:28:14;;;;;;;;;;;;;;;7.75;94.28;100166.34;5022290;28;3304;-79
2021/04/29 10:30:39;;;;;;;;;;;;;;;7.79;93.53;100158.25;5025326;28;3378;-78
2021/04/29 10:33:18;;;;;;;;;;;;;;;7.81;93.53;100170.47;5042157;28;1012;-78
2021/04/29 10:35:51;;;;;;;;;;;;;;;7.81;92.86;100164.19;5038278;28;3583;-79
2021/04/29 10:38:29;;;;;;;;;;;;;;;7.79;91.83;100158.25;5033436;28;3456;-78
2021/04/29 10:40:56;;;;;;;;;;;;;;;7.90;92.00;100159.38;5024438;28;3751;-78
2021/04/29 10:43:35;;;;;;;;;;;;;;;8.03;92.40;100152.75;5031275;28;3247;-78
2021/04/29 10:46:04;;;;;;;;;;;;;;;8.22;92.04;100156.88;5043489;28;3452;-78
2021/04/29 10:48:32;;;;;;;;;;;;;;;8.38;91.90;100144.03;5029210;28;3555;-78
2021/04/29 10:51:37;;;;;;;;;;;;;;;8.47;89.87;100144.72;5036545;28;3394;-78
2021/04/29 10:54:09;;;;;;;;;;;;;;;8.62;89.82;100139.66;5024762;28;3236;-78
2021/04/29 10:56:35;;;;;;;;;;;;;;;8.70;90.11;100132.41;5032712;28;2902;-78
2021/04/29 10:59:08;;;;;;;;;;;;;;;8.70;89.35;100133.22;5020579;28;1154;-78
2021/04/29 11:01:39;;;;;;;;;;;;;;;8.79;90.17;100133.06;5022196;28;3590;-78
2021/04/29 11:04:13;;;;;;;;;;;;;;;8.82;89.85;100130.44;5036551;28;1273;-77
2021/04/29 11:06:39;;;;;;;;;;;;;;;8.72;89.65;100135.63;5037915;28;1086;-78
2021/04/29 11:09:22;;;;;;;;;;;;;;;8.59;90.54;100132.09;5042784;28;1185;-78
2021/04/29 11:11:59;;;;;;;;;;;;;;;8.43;89.00;100151.28;5052311;28;3472;-78
2021/04/29 11:14:36;;;;;;;;;;;;;;;8.21;89.79;100160.78;5036518;28;881;-78
2021/04/29 11:17:02;;;;;;;;;;;;;;;8.13;90.23;100175.44;5038366;28;1955;-78
2021/04/29 11:19:41;;;;;;;;;;;;;;;8.05;89.98;100172.47;5040529;28;1256;-78
2021/04/29 11:22:11;;;;;;;;;;;;;;;8.13;90.65;100162.47;5034718;28;2744;-78
2021/04/29 11:24:39;;;;;;;;;;;;;;;8.28;91.07;100155.50;5037631;28;797;-79
2021/04/29 11:27:16;;;;;;;;;;;;;;;8.43;91.26;100156.78;5037007;28;888;-79
2021/04/29 11:29:42;;;;;;;;;;;;;;;8.40;90.84;100152.72;5038894;28;1571;-78
2021/04/29 11:32:07;;;;;;;;;;;;;;;8.37;90.59;100147.91;5038519;28;976;-78
2021/04/29 11:34:48;;;;;;;;;;;;;;;8.37;91.26;100147.91;5038901;28;871;-79
2021/04/29 11:37:15;;;;;;;;;;;;;;;8.30;90.62;100144.94;5039073;28;1906;-79
2021/04/29 11:39:41;;;;;;;;;;;;;;;8.27;91.20;100145.63;5038617;28;1185;-78
2021/04/29 11:42:10;;;;;;;;;;;;;;;8.24;91.18;100152.63;5038199;28;844;-78
2021/04/29 11:44:35;;;;;;;;;;;;;;;8.20;91.06;100153.66;5038041;28;1214;-79
2021/04/29 11:47:11;;;;;;;;;;;;;;;8.15;91.69;100162.97;5032571;28;3156;-78
2021/04/29 11:49:37;;;;;;;;;;;;;;;7.98;91.13;100171.44;5020560;28;3132;-78
2021/04/29 11:52:03;;;;;;;;;;;;;;;7.90;91.15;100175.88;5022848;28;2689;-78
2021/04/29 11:54:28;;;;;;;;;;;;;;;7.94;91.56;100173.25;5036162;28;946;-78
2021/04/29 11:56:59;;;;;;;;;;;;;;;8.03;91.15;100172.00;5035285;28;1899;-78
2021/04/29 11:59:30;;;;;;;;;;;;;;;8.11;92.01;100175.78;5035564;28;1193;-79
2021/04/29 12:01:58;;;;;;;;;;;;;;;8.16;91.84;100180.25;5037722;28;860;-78
2021/04/29 12:04:24;;;;;;;;;;;;;;;8.18;91.89;100178.75;5038131;28;825;-78
2021/04/29 12:06:55;;;;;;;;;;;;;;;8.18;91.52;100176.00;5037419;28;1364;-79
2021/04/29 12:09:22;;;;;;;;;;;;;;;8.23;91.72;100175.78;5039118;28;1154;-78
2021/04/29 12:11:48;;;;;;;;;;;;;;;8.25;92.12;100173.50;5041626;28;908;-79
2021/04/29 12:14:20;;;;;;;;;;;;;;;8.26;92.08;100180.59;5040932;28;888;-78
2021/04/29 12:16:45;;;;;;;;;;;;;;;8.26;92.52;100188.06;5041150;28;1893;-78
2021/04/29 12:19:11;;;;;;;;;;;;;;;8.16;91.33;100186.56;5040727;28;1170;-79
2021/04/29 12:21:38;;;;;;;;;;;;;;;8.10;92.65;100188.72;5042784;28;900;-79
2021/04/29 12:24:08;;;;;;;;;;;;;;;8.07;92.59;100188.63;5042795;28;887;-79
2021/04/29 12:26:37;;;;;;;;;;;;;;;8.01;91.99;100200.97;5042036;28;872;-78
2021/04/29 12:29:08;;;;;;;;;;;;;;;8.01;92.36;100195.47;5039205;28;1303;-79
2021/04/29 12:31:35;;;;;;;;;;;;;;;8.03;92.78;100188.50;5038623;28;1046;-78
2021/04/29 12:34:05;;;;;;;;;;;;;;;8.03;92.75;100193.22;5039359;28;904;-78
2021/04/29 12:36:47;;;;;;;;;;;;;;;8.00;92.18;100191.94;5038637;28;1894;-78
2021/04/29 12:39:13;;;;;;;;;;;;;;;7.99;93.03;100198.56;5044061;28;1197;-78
2021/04/29 12:41:39;;;;;;;;;;;;;;;7.91;92.87;100202.22;5045059;28;888;-78
2021/04/29 12:44:05;;;;;;;;;;;;;;;7.91;92.54;100200.28;5046108;28;959;-78
2021/04/29 12:46:34;;;;;;;;;;;;;;;7.97;93.10;100189.06;5045804;28;813;-78
2021/04/29 12:49:00;;;;;;;;;;;;;;;7.99;93.60;100190.31;5043635;28;1275;-79
2021/04/29 12:51:26;;;;;;;;;;;;;;;8.02;92.90;100189.63;5044669;28;865;-78
2021/04/29 12:54:10;;;;;;;;;;;;;;;8.06;92.59;100198.81;5044025;28;1046;-78
2021/04/29 12:56:37;;;;;;;;;;;;;;;8.08;93.01;100195.69;5043919;28;1886;-78